sensor_id;sensor_type;location;lat;lon;timestamp;P1;durP1;ratioP1;P2;durP2;ratioP2
20348;SDS011;10332;50.208;18.988;2023-04-01T00:01:00;8.60;;;4.20;;
20348;SDS011;10332;50.208;18.988;2023-04-01T00:03:30;8.57;;;4.85;;
20348;SDS011;10332;50.208;18.988;2023-04-01T00:06:00;8.93;;;5.20;;
20348;SDS011;10332;50.208;18.988;2023-04-01T00:08:28;10.98;;;6.22;;
20348;SDS011;10332;50.208;18.988;2023-04-01T00:10:56;10.93;;;7.22;;
20348;SDS011;10332;50.208;18.988;2023-04-01T00:13:25;13.18;;;6.40;;
20348;SDS011;10332;50.208;18.988;2023-04-01T00:15:54;9.25;;;5.75;;
20348;SDS011;10332;50.208;18.988;2023-04-01T00:18:23;10.40;;;5.88;;
20348;SDS011;10332;50.208;18.988;2023-04-01T00:20:51;8.55;;;5.53;;
20348;SDS011;10332;50.208;18.988;2023-04-01T00:23:19;11.05;;;6.18;;
20348;SDS011;10332;50.208;18.988;2023-04-01T00:25:47;9.85;;;5.95;;
20348;SDS011;10332;50.208;18.988;2023-04-01T00:28:17;8.68;;;5.40;;
20348;SDS011;10332;50.208;18.988;2023-04-01T00:30:47;8.88;;;5.63;;
20348;SDS011;10332;50.208;18.988;2023-04-01T00:33:15;9.68;;;5.63;;
20348;SDS011;10332;50.208;18.988;2023-04-01T00:35:43;8.43;;;5.35;;
20348;SDS011;10332;50.208;18.988;2023-04-01T00:38:11;8.20;;;5.32;;
20348;SDS011;10332;50.208;18.988;2023-04-01T00:40:41;8.55;;;5.68;;
20348;SDS011;10332;50.208;18.988;2023-04-01T00:43:15;12.10;;;6.72;;
20348;SDS011;10332;50.208;18.988;2023-04-01T00:45:47;10.25;;;6.68;;
20348;SDS011;10332;50.208;18.988;2023-04-01T00:48:17;10.52;;;7.03;;
20348;SDS011;10332;50.208;18.988;2023-04-01T00:50:56;12.50;;;6.90;;
20348;SDS011;10332;50.208;18.988;2023-04-01T00:53:30;11.45;;;6.10;;
20348;SDS011;10332;50.208;18.988;2023-04-01T00:56:04;9.13;;;5.65;;
20348;SDS011;10332;50.208;18.988;2023-04-01T00:58:40;8.60;;;5.38;;
20348;SDS011;10332;50.208;18.988;2023-04-01T01:01:15;9.75;;;6.13;;
20348;SDS011;10332;50.208;18.988;2023-04-01T01:03:43;9.05;;;6.15;;
20348;SDS011;10332;50.208;18.988;2023-04-01T01:06:13;8.77;;;5.72;;
20348;SDS011;10332;50.208;18.988;2023-04-01T01:14:57;9.90;;;6.38;;
20348;SDS011;10332;50.208;18.988;2023-04-01T01:18:01;9.15;;;5.90;;
20348;SDS011;10332;50.208;18.988;2023-04-01T01:24:11;9.48;;;5.38;;
20348;SDS011;10332;50.208;18.988;2023-04-01T01:35:30;10.23;;;5.88;;
20348;SDS011;10332;50.208;18.988;2023-04-01T01:38:09;8.82;;;5.93;;
20348;SDS011;10332;50.208;18.988;2023-04-01T01:40:44;10.05;;;5.72;;
20348;SDS011;10332;50.208;18.988;2023-04-01T01:43:21;9.63;;;6.05;;
20348;SDS011;10332;50.208;18.988;2023-04-01T01:45:56;9.52;;;5.63;;
20348;SDS011;10332;50.208;18.988;2023-04-01T01:48:29;8.70;;;5.40;;
20348;SDS011;10332;50.208;18.988;2023-04-01T01:50:59;8.57;;;5.13;;
20348;SDS011;10332;50.208;18.988;2023-04-01T01:53:27;7.65;;;4.85;;
20348;SDS011;10332;50.208;18.988;2023-04-01T01:55:54;7.07;;;4.90;;
20348;SDS011;10332;50.208;18.988;2023-04-01T01:58:30;8.82;;;5.55;;
20348;SDS011;10332;50.208;18.988;2023-04-01T02:01:08;10.50;;;5.18;;
20348;SDS011;10332;50.208;18.988;2023-04-01T02:04:00;9.32;;;5.55;;
20348;SDS011;10332;50.208;18.988;2023-04-01T02:06:30;7.63;;;4.93;;
20348;SDS011;10332;50.208;18.988;2023-04-01T02:09:04;8.45;;;5.40;;
20348;SDS011;10332;50.208;18.988;2023-04-01T02:11:41;7.10;;;5.03;;
20348;SDS011;10332;50.208;18.988;2023-04-01T02:17:20;7.93;;;4.75;;
20348;SDS011;10332;50.208;18.988;2023-04-01T02:19:57;7.55;;;5.35;;
20348;SDS011;10332;50.208;18.988;2023-04-01T02:22:32;7.70;;;4.72;;
20348;SDS011;10332;50.208;18.988;2023-04-01T02:25:07;8.73;;;5.93;;
20348;SDS011;10332;50.208;18.988;2023-04-01T02:27:40;10.95;;;5.97;;
20348;SDS011;10332;50.208;18.988;2023-04-01T02:30:12;9.82;;;5.82;;
20348;SDS011;10332;50.208;18.988;2023-04-01T02:32:42;12.52;;;7.05;;
20348;SDS011;10332;50.208;18.988;2023-04-01T02:35:11;10.07;;;6.93;;
20348;SDS011;10332;50.208;18.988;2023-04-01T02:37:43;10.32;;;6.82;;
20348;SDS011;10332;50.208;18.988;2023-04-01T02:40:16;10.60;;;7.55;;
20348;SDS011;10332;50.208;18.988;2023-04-01T02:42:45;12.73;;;8.02;;
20348;SDS011;10332;50.208;18.988;2023-04-01T02:45:13;12.82;;;7.97;;
20348;SDS011;10332;50.208;18.988;2023-04-01T02:47:41;14.05;;;9.13;;
20348;SDS011;10332;50.208;18.988;2023-04-01T02:50:09;14.63;;;9.15;;
20348;SDS011;10332;50.208;18.988;2023-04-01T02:52:36;13.88;;;8.65;;
20348;SDS011;10332;50.208;18.988;2023-04-01T02:55:06;14.90;;;9.23;;
20348;SDS011;10332;50.208;18.988;2023-04-01T02:57:34;14.65;;;8.43;;
20348;SDS011;10332;50.208;18.988;2023-04-01T03:00:01;14.48;;;8.82;;
20348;SDS011;10332;50.208;18.988;2023-04-01T03:02:30;12.70;;;8.65;;
20348;SDS011;10332;50.208;18.988;2023-04-01T03:04:58;12.52;;;9.07;;
20348;SDS011;10332;50.208;18.988;2023-04-01T03:07:25;11.38;;;7.57;;
20348;SDS011;10332;50.208;18.988;2023-04-01T03:09:53;10.88;;;7.78;;
20348;SDS011;10332;50.208;18.988;2023-04-01T03:12:20;11.80;;;7.93;;
20348;SDS011;10332;50.208;18.988;2023-04-01T03:14:47;9.57;;;7.07;;
20348;SDS011;10332;50.208;18.988;2023-04-01T03:17:15;12.20;;;7.53;;
20348;SDS011;10332;50.208;18.988;2023-04-01T03:19:42;13.10;;;8.27;;
20348;SDS011;10332;50.208;18.988;2023-04-01T03:22:10;9.63;;;7.03;;
20348;SDS011;10332;50.208;18.988;2023-04-01T03:24:38;16.60;;;7.97;;
20348;SDS011;10332;50.208;18.988;2023-04-01T03:27:05;12.23;;;8.40;;
20348;SDS011;10332;50.208;18.988;2023-04-01T03:29:33;11.95;;;8.10;;
20348;SDS011;10332;50.208;18.988;2023-04-01T03:32:00;12.65;;;8.07;;
20348;SDS011;10332;50.208;18.988;2023-04-01T03:34:28;13.82;;;8.63;;
20348;SDS011;10332;50.208;18.988;2023-04-01T03:36:55;15.70;;;9.23;;
20348;SDS011;10332;50.208;18.988;2023-04-01T03:39:23;13.38;;;8.50;;
20348;SDS011;10332;50.208;18.988;2023-04-01T03:41:51;12.65;;;6.93;;
20348;SDS011;10332;50.208;18.988;2023-04-01T03:44:19;8.27;;;5.22;;
20348;SDS011;10332;50.208;18.988;2023-04-01T03:46:46;6.55;;;4.95;;
20348;SDS011;10332;50.208;18.988;2023-04-01T03:49:14;8.68;;;5.53;;
20348;SDS011;10332;50.208;18.988;2023-04-01T03:51:42;9.07;;;5.15;;
20348;SDS011;10332;50.208;18.988;2023-04-01T03:54:11;8.30;;;5.28;;
20348;SDS011;10332;50.208;18.988;2023-04-01T03:56:38;9.98;;;5.22;;
20348;SDS011;10332;50.208;18.988;2023-04-01T03:59:06;8.88;;;5.70;;
20348;SDS011;10332;50.208;18.988;2023-04-01T04:01:35;8.50;;;5.53;;
20348;SDS011;10332;50.208;18.988;2023-04-01T04:04:02;10.13;;;5.00;;
20348;SDS011;10332;50.208;18.988;2023-04-01T04:06:31;8.32;;;5.10;;
20348;SDS011;10332;50.208;18.988;2023-04-01T04:09:00;7.45;;;4.75;;
20348;SDS011;10332;50.208;18.988;2023-04-01T04:11:27;9.52;;;5.78;;
20348;SDS011;10332;50.208;18.988;2023-04-01T04:13:58;10.45;;;5.75;;
20348;SDS011;10332;50.208;18.988;2023-04-01T04:16:25;8.63;;;5.00;;
20348;SDS011;10332;50.208;18.988;2023-04-01T04:18:53;6.82;;;4.47;;
20348;SDS011;10332;50.208;18.988;2023-04-01T04:21:20;8.18;;;4.85;;
20348;SDS011;10332;50.208;18.988;2023-04-01T04:23:48;9.10;;;5.00;;
20348;SDS011;10332;50.208;18.988;2023-04-01T04:26:17;7.65;;;4.45;;
20348;SDS011;10332;50.208;18.988;2023-04-01T04:28:44;7.97;;;4.28;;
20348;SDS011;10332;50.208;18.988;2023-04-01T04:31:12;6.53;;;4.30;;
20348;SDS011;10332;50.208;18.988;2023-04-01T04:33:47;9.45;;;4.55;;
20348;SDS011;10332;50.208;18.988;2023-04-01T04:36:15;6.50;;;3.88;;
20348;SDS011;10332;50.208;18.988;2023-04-01T04:38:43;6.40;;;4.03;;
20348;SDS011;10332;50.208;18.988;2023-04-01T04:41:13;8.93;;;4.80;;
20348;SDS011;10332;50.208;18.988;2023-04-01T04:43:51;7.47;;;4.60;;
20348;SDS011;10332;50.208;18.988;2023-04-01T04:46:22;7.95;;;4.88;;
20348;SDS011;10332;50.208;18.988;2023-04-01T04:48:50;8.82;;;5.43;;
20348;SDS011;10332;50.208;18.988;2023-04-01T04:51:18;11.18;;;5.75;;
20348;SDS011;10332;50.208;18.988;2023-04-01T04:53:47;9.75;;;6.60;;
20348;SDS011;10332;50.208;18.988;2023-04-01T04:56:21;11.65;;;6.30;;
20348;SDS011;10332;50.208;18.988;2023-04-01T04:58:49;10.35;;;5.63;;
20348;SDS011;10332;50.208;18.988;2023-04-01T05:01:16;10.23;;;5.13;;
20348;SDS011;10332;50.208;18.988;2023-04-01T05:03:45;8.77;;;5.22;;
20348;SDS011;10332;50.208;18.988;2023-04-01T05:06:13;8.43;;;5.15;;
20348;SDS011;10332;50.208;18.988;2023-04-01T05:08:44;8.32;;;5.35;;
20348;SDS011;10332;50.208;18.988;2023-04-01T05:11:13;9.38;;;5.35;;
20348;SDS011;10332;50.208;18.988;2023-04-01T05:13:44;7.80;;;4.80;;
20348;SDS011;10332;50.208;18.988;2023-04-01T05:16:16;9.05;;;5.07;;
20348;SDS011;10332;50.208;18.988;2023-04-01T05:18:47;8.80;;;5.60;;
20348;SDS011;10332;50.208;18.988;2023-04-01T05:21:14;11.85;;;6.80;;
20348;SDS011;10332;50.208;18.988;2023-04-01T05:23:42;12.77;;;7.90;;
20348;SDS011;10332;50.208;18.988;2023-04-01T05:26:11;15.27;;;8.77;;
20348;SDS011;10332;50.208;18.988;2023-04-01T05:28:41;14.65;;;9.45;;
20348;SDS011;10332;50.208;18.988;2023-04-01T05:31:09;13.75;;;8.68;;
20348;SDS011;10332;50.208;18.988;2023-04-01T05:33:37;13.80;;;8.70;;
20348;SDS011;10332;50.208;18.988;2023-04-01T05:38:40;15.75;;;8.13;;
20348;SDS011;10332;50.208;18.988;2023-04-01T05:41:09;13.75;;;7.68;;
20348;SDS011;10332;50.208;18.988;2023-04-01T05:43:37;11.93;;;7.65;;
20348;SDS011;10332;50.208;18.988;2023-04-01T05:46:06;12.75;;;7.40;;
20348;SDS011;10332;50.208;18.988;2023-04-01T05:48:35;12.10;;;7.60;;
20348;SDS011;10332;50.208;18.988;2023-04-01T05:51:02;12.80;;;7.10;;
20348;SDS011;10332;50.208;18.988;2023-04-01T05:53:30;10.18;;;6.97;;
20348;SDS011;10332;50.208;18.988;2023-04-01T05:56:01;9.52;;;6.72;;
20348;SDS011;10332;50.208;18.988;2023-04-01T05:58:30;15.13;;;7.25;;
20348;SDS011;10332;50.208;18.988;2023-04-01T06:01:08;12.43;;;7.82;;
20348;SDS011;10332;50.208;18.988;2023-04-01T06:03:42;12.93;;;6.88;;
20348;SDS011;10332;50.208;18.988;2023-04-01T06:06:13;12.38;;;6.85;;
20348;SDS011;10332;50.208;18.988;2023-04-01T06:08:46;10.68;;;6.38;;
20348;SDS011;10332;50.208;18.988;2023-04-01T06:11:35;10.52;;;6.57;;
20348;SDS011;10332;50.208;18.988;2023-04-01T06:14:44;12.93;;;6.95;;
20348;SDS011;10332;50.208;18.988;2023-04-01T06:31:38;11.52;;;5.93;;
20348;SDS011;10332;50.208;18.988;2023-04-01T06:50:23;9.82;;;5.07;;
20348;SDS011;10332;50.208;18.988;2023-04-01T06:55:52;7.72;;;4.65;;
20348;SDS011;10332;50.208;18.988;2023-04-01T06:58:29;7.72;;;4.57;;
20348;SDS011;10332;50.208;18.988;2023-04-01T07:01:33;10.20;;;4.35;;
20348;SDS011;10332;50.208;18.988;2023-04-01T07:04:13;5.47;;;3.70;;
20348;SDS011;10332;50.208;18.988;2023-04-01T07:07:01;6.13;;;4.22;;
20348;SDS011;10332;50.208;18.988;2023-04-01T07:09:49;7.60;;;4.32;;
20348;SDS011;10332;50.208;18.988;2023-04-01T07:12:32;7.88;;;4.03;;
20348;SDS011;10332;50.208;18.988;2023-04-01T07:15:30;8.27;;;3.97;;
20348;SDS011;10332;50.208;18.988;2023-04-01T07:18:19;8.75;;;4.78;;
20348;SDS011;10332;50.208;18.988;2023-04-01T07:20:59;9.43;;;4.70;;
20348;SDS011;10332;50.208;18.988;2023-04-01T07:23:31;9.68;;;4.18;;
20348;SDS011;10332;50.208;18.988;2023-04-01T07:26:26;7.38;;;4.63;;
20348;SDS011;10332;50.208;18.988;2023-04-01T07:28:54;10.75;;;4.82;;
20348;SDS011;10332;50.208;18.988;2023-04-01T07:31:33;10.02;;;4.82;;
20348;SDS011;10332;50.208;18.988;2023-04-01T07:34:28;6.95;;;4.90;;
20348;SDS011;10332;50.208;18.988;2023-04-01T07:37:16;7.47;;;4.65;;
20348;SDS011;10332;50.208;18.988;2023-04-01T07:57:23;7.97;;;5.20;;
20348;SDS011;10332;50.208;18.988;2023-04-01T08:00:20;8.50;;;5.88;;
20348;SDS011;10332;50.208;18.988;2023-04-01T08:05:40;9.95;;;5.97;;
20348;SDS011;10332;50.208;18.988;2023-04-01T08:22:09;8.65;;;5.32;;
20348;SDS011;10332;50.208;18.988;2023-04-01T08:24:46;7.15;;;5.03;;
20348;SDS011;10332;50.208;18.988;2023-04-01T08:27:22;5.75;;;4.28;;
20348;SDS011;10332;50.208;18.988;2023-04-01T08:30:06;6.93;;;4.35;;
20348;SDS011;10332;50.208;18.988;2023-04-01T08:32:57;9.07;;;5.85;;
20348;SDS011;10332;50.208;18.988;2023-04-01T08:38:27;6.88;;;4.38;;
20348;SDS011;10332;50.208;18.988;2023-04-01T08:47:05;7.85;;;4.82;;
20348;SDS011;10332;50.208;18.988;2023-04-01T08:59:11;7.65;;;4.75;;
20348;SDS011;10332;50.208;18.988;2023-04-01T09:28:48;2.70;;;1.70;;
20348;SDS011;10332;50.208;18.988;2023-04-01T09:51:36;6.30;;;4.63;;
20348;SDS011;10332;50.208;18.988;2023-04-01T10:13:11;5.63;;;3.85;;
20348;SDS011;10332;50.208;18.988;2023-04-01T10:55:48;3.38;;;2.80;;
20348;SDS011;10332;50.208;18.988;2023-04-01T11:07:32;1.92;;;1.75;;
20348;SDS011;10332;50.208;18.988;2023-04-01T11:13:54;5.25;;;4.20;;
20348;SDS011;10332;50.208;18.988;2023-04-01T11:22:38;3.78;;;2.83;;
20348;SDS011;10332;50.208;18.988;2023-04-01T11:31:50;5.60;;;4.60;;
20348;SDS011;10332;50.208;18.988;2023-04-01T11:34:59;3.03;;;2.22;;
20348;SDS011;10332;50.208;18.988;2023-04-01T11:37:49;3.15;;;2.45;;
20348;SDS011;10332;50.208;18.988;2023-04-01T11:40:48;2.65;;;2.20;;
20348;SDS011;10332;50.208;18.988;2023-04-01T11:43:39;2.15;;;1.77;;
20348;SDS011;10332;50.208;18.988;2023-04-01T11:52:33;2.25;;;1.65;;
20348;SDS011;10332;50.208;18.988;2023-04-01T11:55:15;1.83;;;1.40;;
20348;SDS011;10332;50.208;18.988;2023-04-01T12:16:07;2.33;;;1.70;;
20348;SDS011;10332;50.208;18.988;2023-04-01T12:20:10;2.50;;;1.65;;
20348;SDS011;10332;50.208;18.988;2023-04-01T12:43:22;4.63;;;2.60;;
20348;SDS011;10332;50.208;18.988;2023-04-01T12:52:03;3.53;;;2.38;;
20348;SDS011;10332;50.208;18.988;2023-04-01T13:06:36;6.70;;;5.05;;
20348;SDS011;10332;50.208;18.988;2023-04-01T13:21:08;3.47;;;2.28;;
20348;SDS011;10332;50.208;18.988;2023-04-01T13:24:24;4.38;;;2.40;;
20348;SDS011;10332;50.208;18.988;2023-04-01T13:32:49;2.33;;;1.65;;
20348;SDS011;10332;50.208;18.988;2023-04-01T13:35:52;5.22;;;3.55;;
20348;SDS011;10332;50.208;18.988;2023-04-01T13:44:47;5.90;;;4.03;;
20348;SDS011;10332;50.208;18.988;2023-04-01T13:50:01;2.88;;;2.20;;
20348;SDS011;10332;50.208;18.988;2023-04-01T13:53:03;3.08;;;2.33;;
20348;SDS011;10332;50.208;18.988;2023-04-01T13:59:01;4.55;;;3.47;;
20348;SDS011;10332;50.208;18.988;2023-04-01T14:04:53;3.97;;;2.00;;
20348;SDS011;10332;50.208;18.988;2023-04-01T14:23:25;5.70;;;4.10;;
20348;SDS011;10332;50.208;18.988;2023-04-01T14:35:00;7.40;;;4.43;;
20348;SDS011;10332;50.208;18.988;2023-04-01T14:44:18;5.82;;;3.63;;
20348;SDS011;10332;50.208;18.988;2023-04-01T14:50:19;3.83;;;2.60;;
20348;SDS011;10332;50.208;18.988;2023-04-01T14:55:36;5.05;;;3.17;;
20348;SDS011;10332;50.208;18.988;2023-04-01T14:58:21;5.40;;;3.88;;
20348;SDS011;10332;50.208;18.988;2023-04-01T15:03:40;7.90;;;5.32;;
20348;SDS011;10332;50.208;18.988;2023-04-01T15:06:42;25.75;;;14.43;;
20348;SDS011;10332;50.208;18.988;2023-04-01T15:19:19;10.82;;;6.13;;
20348;SDS011;10332;50.208;18.988;2023-04-01T15:22:16;8.52;;;4.93;;
20348;SDS011;10332;50.208;18.988;2023-04-01T15:37:29;6.20;;;4.47;;
20348;SDS011;10332;50.208;18.988;2023-04-01T15:40:11;8.38;;;5.30;;
20348;SDS011;10332;50.208;18.988;2023-04-01T15:43:03;7.60;;;4.53;;
20348;SDS011;10332;50.208;18.988;2023-04-01T15:49:00;11.02;;;6.43;;
20348;SDS011;10332;50.208;18.988;2023-04-01T15:51:58;21.90;;;14.18;;
20348;SDS011;10332;50.208;18.988;2023-04-01T15:54:53;25.23;;;16.70;;
20348;SDS011;10332;50.208;18.988;2023-04-01T16:04:57;14.13;;;8.57;;
20348;SDS011;10332;50.208;18.988;2023-04-01T16:07:40;5.70;;;3.65;;
20348;SDS011;10332;50.208;18.988;2023-04-01T16:10:21;9.25;;;4.28;;
20348;SDS011;10332;50.208;18.988;2023-04-01T16:22:12;5.68;;;3.33;;
20348;SDS011;10332;50.208;18.988;2023-04-01T16:25:14;5.25;;;3.85;;
20348;SDS011;10332;50.208;18.988;2023-04-01T16:30:57;8.43;;;4.32;;
20348;SDS011;10332;50.208;18.988;2023-04-01T16:47:31;10.35;;;5.82;;
20348;SDS011;10332;50.208;18.988;2023-04-01T16:53:08;12.23;;;7.95;;
20348;SDS011;10332;50.208;18.988;2023-04-01T16:55:47;15.55;;;9.13;;
20348;SDS011;10332;50.208;18.988;2023-04-01T16:58:36;14.23;;;8.45;;
20348;SDS011;10332;50.208;18.988;2023-04-01T17:01:23;12.52;;;8.07;;
20348;SDS011;10332;50.208;18.988;2023-04-01T17:06:56;10.60;;;6.80;;
20348;SDS011;10332;50.208;18.988;2023-04-01T17:15:20;7.53;;;4.15;;
20348;SDS011;10332;50.208;18.988;2023-04-01T17:21:11;5.82;;;4.22;;
20348;SDS011;10332;50.208;18.988;2023-04-01T17:27:18;9.80;;;5.50;;
20348;SDS011;10332;50.208;18.988;2023-04-01T18:08:11;10.38;;;6.90;;
20348;SDS011;10332;50.208;18.988;2023-04-01T18:25:47;8.23;;;5.28;;
20348;SDS011;10332;50.208;18.988;2023-04-01T18:31:12;8.85;;;6.00;;
20348;SDS011;10332;50.208;18.988;2023-04-01T18:34:02;12.50;;;7.18;;
20348;SDS011;10332;50.208;18.988;2023-04-01T18:36:49;12.13;;;7.43;;
20348;SDS011;10332;50.208;18.988;2023-04-01T18:39:40;12.23;;;6.65;;
20348;SDS011;10332;50.208;18.988;2023-04-01T18:42:24;8.48;;;5.78;;
20348;SDS011;10332;50.208;18.988;2023-04-01T18:45:36;8.43;;;5.28;;
20348;SDS011;10332;50.208;18.988;2023-04-01T18:51:49;10.32;;;5.88;;
20348;SDS011;10332;50.208;18.988;2023-04-01T18:57:02;9.48;;;5.63;;
20348;SDS011;10332;50.208;18.988;2023-04-01T18:59:50;11.65;;;7.97;;
20348;SDS011;10332;50.208;18.988;2023-04-01T19:02:27;13.73;;;8.18;;
20348;SDS011;10332;50.208;18.988;2023-04-01T19:05:19;9.70;;;5.88;;
20348;SDS011;10332;50.208;18.988;2023-04-01T19:11:18;9.98;;;6.70;;
20348;SDS011;10332;50.208;18.988;2023-04-01T19:14:23;10.18;;;6.85;;
20348;SDS011;10332;50.208;18.988;2023-04-01T19:17:32;8.93;;;6.35;;
20348;SDS011;10332;50.208;18.988;2023-04-01T19:20:29;15.48;;;9.38;;
20348;SDS011;10332;50.208;18.988;2023-04-01T19:38:15;15.98;;;11.20;;
20348;SDS011;10332;50.208;18.988;2023-04-01T19:47:15;18.80;;;11.38;;
20348;SDS011;10332;50.208;18.988;2023-04-01T19:50:03;26.83;;;16.30;;
20348;SDS011;10332;50.208;18.988;2023-04-01T19:52:56;27.88;;;16.83;;
20348;SDS011;10332;50.208;18.988;2023-04-01T19:58:32;29.55;;;19.30;;
20348;SDS011;10332;50.208;18.988;2023-04-01T20:01:35;27.13;;;17.80;;
20348;SDS011;10332;50.208;18.988;2023-04-01T20:04:17;22.98;;;16.52;;
20348;SDS011;10332;50.208;18.988;2023-04-01T20:07:23;25.50;;;18.02;;
20348;SDS011;10332;50.208;18.988;2023-04-01T20:10:05;24.98;;;17.98;;
20348;SDS011;10332;50.208;18.988;2023-04-01T20:13:01;26.58;;;17.45;;
20348;SDS011;10332;50.208;18.988;2023-04-01T20:15:57;25.80;;;16.60;;
20348;SDS011;10332;50.208;18.988;2023-04-01T20:21:33;27.05;;;18.00;;
20348;SDS011;10332;50.208;18.988;2023-04-01T20:24:21;34.28;;;21.98;;
20348;SDS011;10332;50.208;18.988;2023-04-01T20:27:02;32.30;;;20.83;;
20348;SDS011;10332;50.208;18.988;2023-04-01T20:39:25;29.25;;;18.42;;
20348;SDS011;10332;50.208;18.988;2023-04-01T20:45:59;42.65;;;25.13;;
20348;SDS011;10332;50.208;18.988;2023-04-01T21:06:18;31.92;;;21.90;;
20348;SDS011;10332;50.208;18.988;2023-04-01T21:12:14;28.98;;;18.90;;
20348;SDS011;10332;50.208;18.988;2023-04-01T21:15:02;28.73;;;19.50;;
20348;SDS011;10332;50.208;18.988;2023-04-01T21:23:45;37.33;;;24.50;;
20348;SDS011;10332;50.208;18.988;2023-04-01T21:50:38;25.38;;;16.95;;
20348;SDS011;10332;50.208;18.988;2023-04-01T21:53:25;23.10;;;17.52;;
20348;SDS011;10332;50.208;18.988;2023-04-01T21:59:01;23.30;;;16.45;;
20348;SDS011;10332;50.208;18.988;2023-04-01T22:20:33;30.05;;;21.20;;
20348;SDS011;10332;50.208;18.988;2023-04-01T22:23:32;30.40;;;21.48;;
20348;SDS011;10332;50.208;18.988;2023-04-01T22:26:32;34.33;;;23.27;;
20348;SDS011;10332;50.208;18.988;2023-04-01T22:32:14;34.55;;;24.02;;
20348;SDS011;10332;50.208;18.988;2023-04-01T22:34:57;38.13;;;25.80;;
20348;SDS011;10332;50.208;18.988;2023-04-01T22:43:25;39.50;;;27.65;;
20348;SDS011;10332;50.208;18.988;2023-04-01T22:46:26;38.10;;;27.20;;
20348;SDS011;10332;50.208;18.988;2023-04-01T22:52:09;39.72;;;28.83;;
20348;SDS011;10332;50.208;18.988;2023-04-01T22:54:56;34.10;;;23.23;;
20348;SDS011;10332;50.208;18.988;2023-04-01T22:57:42;34.13;;;23.52;;
20348;SDS011;10332;50.208;18.988;2023-04-01T23:00:26;32.13;;;22.92;;
20348;SDS011;10332;50.208;18.988;2023-04-01T23:05:59;31.08;;;22.38;;
20348;SDS011;10332;50.208;18.988;2023-04-01T23:19:40;37.10;;;24.98;;
20348;SDS011;10332;50.208;18.988;2023-04-01T23:23:05;26.33;;;17.05;;
20348;SDS011;10332;50.208;18.988;2023-04-01T23:26:04;30.23;;;20.77;;
20348;SDS011;10332;50.208;18.988;2023-04-01T23:29:16;31.42;;;20.75;;
20348;SDS011;10332;50.208;18.988;2023-04-01T23:31:47;37.83;;;25.40;;
20348;SDS011;10332;50.208;18.988;2023-04-01T23:34:25;43.92;;;30.02;;
20348;SDS011;10332;50.208;18.988;2023-04-01T23:37:01;47.80;;;31.60;;
20348;SDS011;10332;50.208;18.988;2023-04-01T23:39:39;51.53;;;33.65;;
20348;SDS011;10332;50.208;18.988;2023-04-01T23:42:19;50.10;;;33.63;;
20348;SDS011;10332;50.208;18.988;2023-04-01T23:45:02;53.33;;;34.50;;
20348;SDS011;10332;50.208;18.988;2023-04-01T23:47:48;49.75;;;33.67;;
20348;SDS011;10332;50.208;18.988;2023-04-01T23:50:20;47.60;;;31.27;;
20348;SDS011;10332;50.208;18.988;2023-04-01T23:52:54;42.60;;;28.73;;
20348;SDS011;10332;50.208;18.988;2023-04-01T23:55:31;46.75;;;32.83;;
20348;SDS011;10332;50.208;18.988;2023-04-01T23:58:13;49.95;;;32.60;;
